createdAt,value
2023-05-18T00:06:17.727Z,67.95
2023-05-18T00:16:43.761Z,68.05
2023-05-18T00:27:10.076Z,68.15
2023-05-18T00:37:35.958Z,68.27
2023-05-18T00:48:01.987Z,68.29
2023-05-18T00:58:28.112Z,68.33
2023-05-18T01:08:54.482Z,68.46
2023-05-18T01:19:44.978Z,68.48
2023-05-18T01:30:12.998Z,68.51
2023-05-18T01:40:45.570Z,68.44
2023-05-18T01:51:15.117Z,68.51
2023-05-18T02:01:40.997Z,68.82
2023-05-18T02:12:08.261Z,68.91
2023-05-18T02:22:34.200Z,69.08
2023-05-18T02:33:00.142Z,69.40
2023-05-18T02:43:26.172Z,69.25
2023-05-18T02:53:53.157Z,69.27
2023-05-18T03:04:20.090Z,69.46
2023-05-18T03:14:46.103Z,69.32
2023-05-18T03:25:12.265Z,69.46
2023-05-18T03:35:37.919Z,69.49
2023-05-18T03:46:03.365Z,69.89
2023-05-18T03:56:31.536Z,70.03
2023-05-18T04:06:57.266Z,70.18
2023-05-18T04:17:23.737Z,70.04
2023-05-18T04:27:51.661Z,70.25
2023-05-18T04:38:17.728Z,70.04
2023-05-18T04:48:43.635Z,70.31
2023-05-18T04:59:09.559Z,70.25
2023-05-18T05:09:35.374Z,70.50
2023-05-18T05:20:01.453Z,70.36
2023-05-18T05:30:27.402Z,70.66
2023-05-18T05:40:53.433Z,70.73
2023-05-18T05:51:19.471Z,70.60
2023-05-18T06:01:45.625Z,70.28
2023-05-18T06:12:12.494Z,70.46
2023-05-18T06:22:38.344Z,70.33
2023-05-18T06:33:04.763Z,69.94
2023-05-18T06:43:30.656Z,69.68
2023-05-18T06:53:56.519Z,69.53
2023-05-18T07:04:22.508Z,69.31
2023-05-18T07:14:48.198Z,69.35
2023-05-18T07:25:14.172Z,68.73
2023-05-18T07:35:40.447Z,68.60
2023-05-18T07:46:06.512Z,67.72
2023-05-18T07:56:32.416Z,65.89
2023-05-18T08:07:00.733Z,65.10
2023-05-18T08:17:26.568Z,64.91
2023-05-18T08:27:53.081Z,64.63
2023-05-18T08:38:19.392Z,65.48
2023-05-18T08:48:48.184Z,64.23
2023-05-18T08:59:15.877Z,64.05
2023-05-18T09:09:44.401Z,64.14
2023-05-18T09:20:12.318Z,63.38
2023-05-18T09:30:45.089Z,62.61
2023-05-18T09:41:15.258Z,62.67
2023-05-18T09:51:42.055Z,62.78
2023-05-18T10:02:09.176Z,61.75
2023-05-18T10:12:35.249Z,61.96
2023-05-18T10:23:06.477Z,61.50
2023-05-18T10:33:34.859Z,60.16
2023-05-18T10:44:04.042Z,59.41
2023-05-18T10:54:31.317Z,59.68
2023-05-18T11:04:57.469Z,59.60
2023-05-18T11:15:43.061Z,60.11
2023-05-18T11:26:18.670Z,60.18
2023-05-18T11:36:56.285Z,60.60
2023-05-18T11:47:34.605Z,61.55
2023-05-18T11:58:00.517Z,61.76
2023-05-18T12:08:29.692Z,62.39
2023-05-18T12:18:55.596Z,63.20
2023-05-18T12:29:23.978Z,64.26
2023-05-18T12:39:54.967Z,64.40
2023-05-18T12:50:21.100Z,64.83
2023-05-18T13:00:49.434Z,65.09
2023-05-18T13:11:16.853Z,65.25
2023-05-18T13:21:43.595Z,65.76
2023-05-18T13:32:10.745Z,65.72
2023-05-18T13:42:36.749Z,65.83
2023-05-18T13:53:02.926Z,66.22
2023-05-18T14:03:29.421Z,66.67
2023-05-18T14:13:55.754Z,67.49
2023-05-18T14:24:21.793Z,67.88
2023-05-18T14:34:47.785Z,67.54
2023-05-18T14:45:14.453Z,68.13
2023-05-18T14:55:40.349Z,68.29
2023-05-18T15:06:06.696Z,68.00
2023-05-18T15:16:32.966Z,68.39
2023-05-18T15:26:58.678Z,68.70
2023-05-18T15:37:24.749Z,68.19
2023-05-18T15:47:50.712Z,68.23
2023-05-18T15:58:17.280Z,68.28
2023-05-18T16:08:42.888Z,67.92
2023-05-18T16:19:08.907Z,68.01
2023-05-18T16:29:34.463Z,68.36
2023-05-18T16:40:00.682Z,68.28
2023-05-18T16:50:27.957Z,68.30
2023-05-18T17:00:54.038Z,67.38
2023-05-18T17:11:20.008Z,66.71
2023-05-18T17:21:46.399Z,66.14
2023-05-18T17:32:12.078Z,66.06
2023-05-18T17:42:38.250Z,66.19
2023-05-18T17:53:05.048Z,66.17
2023-05-18T18:03:30.646Z,66.49
2023-05-18T18:13:57.181Z,66.56
2023-05-18T18:24:23.796Z,66.68
2023-05-18T18:34:49.183Z,66.99
2023-05-18T18:45:15.377Z,66.67
2023-05-18T18:55:41.685Z,66.43
2023-05-18T19:06:07.393Z,65.93
2023-05-18T19:16:34.202Z,65.65
2023-05-18T19:27:00.265Z,65.73
2023-05-18T19:37:26.284Z,65.76
2023-05-18T19:47:52.494Z,65.70
2023-05-18T19:58:18.291Z,65.57
2023-05-18T20:08:44.667Z,65.69
2023-05-18T20:19:12.067Z,65.87
2023-05-18T20:29:37.990Z,65.75
2023-05-18T20:40:09.039Z,65.65
2023-05-18T20:50:35.361Z,65.88
2023-05-18T21:01:07.371Z,65.62
2023-05-18T21:11:33.978Z,65.42
2023-05-18T21:21:59.828Z,65.71
2023-05-18T21:32:26.123Z,66.23
2023-05-18T21:42:52.038Z,66.19
2023-05-18T21:53:18.359Z,66.11
2023-05-18T22:03:43.905Z,66.02
2023-05-18T22:14:09.872Z,66.42
2023-05-18T22:24:36.146Z,66.57
2023-05-18T22:35:03.392Z,66.74
2023-05-18T22:45:29.109Z,67.07
2023-05-18T22:55:56.626Z,67.76
2023-05-18T23:06:23.764Z,67.75
2023-05-18T23:16:50.416Z,67.91
2023-05-18T23:27:16.470Z,68.04
2023-05-18T23:37:43.880Z,68.40
2023-05-18T23:48:12.330Z,68.84
2023-05-18T23:58:41.590Z,69.30
